Time;durP1;ratioP1;P1;durP2;ratioP2;P2;SDS_P1;SDS_P2;PMS_P1;PMS_P2;Temp;Humidity;BMP_temperature;BMP_pressure;BME280_temperature;BME280_humidity;BME280_pressure;Samples;Min_cycle;Max_cycle;Signal;HPM_P1;HPM_P2
2022/10/11 07:08:29;;;;;;;25.82;18.55;;;;;;;11.36;91.62;101130.86;1802437;77;25791;-85
2022/10/11 07:11:14;;;;;;;31.17;21.25;;;;;;;11.37;91.43;101132.05;1803071;77;27563;-84
2022/10/11 07:13:41;;;;;;;37.53;24.43;;;;;;;11.41;91.24;101136.05;1795127;77;26081;-84
2022/10/11 07:16:11;;;;;;;35.48;21.93;;;;;;;11.45;91.48;101143.21;1799983;79;26452;-86
2022/10/11 07:18:38;;;;;;;27.27;20.23;;;;;;;11.50;91.34;101144.33;1804725;78;25906;-84
2022/10/11 07:21:09;;;;;;;27.95;18.70;;;;;;;11.54;91.25;101146.17;1817989;77;25483;-85
2022/10/11 07:23:36;;;;;;;28.23;18.10;;;;;;;11.59;91.30;101146.44;1796649;78;28730;-84
2022/10/11 07:26:04;;;;;;;27.25;19.17;;;;;;;11.63;91.21;101147.25;1792055;77;26071;-85
2022/10/11 07:28:30;;;;;;;26.35;17.80;;;;;;;11.65;91.24;101149.24;1812607;77;25646;-85
2022/10/11 07:30:58;;;;;;;27.60;17.55;;;;;;;11.70;91.36;101162.16;1795767;77;25857;-84
2022/10/11 07:33:24;;;;;;;23.00;16.60;;;;;;;11.75;91.53;101159.77;1808665;77;26314;-84
2022/10/11 07:35:50;;;;;;;27.40;17.40;;;;;;;11.81;91.46;101162.23;1799325;78;27432;-86
2022/10/11 07:38:17;;;;;;;25.05;16.95;;;;;;;11.87;91.47;101165.56;1798072;77;25761;-83
2022/10/11 07:40:45;;;;;;;22.55;16.23;;;;;;;11.90;91.49;101172.73;1789905;77;25638;-86
2022/10/11 07:43:13;;;;;;;24.02;16.05;;;;;;;11.96;91.45;101177.88;1810188;77;25824;-84
2022/10/11 07:45:40;;;;;;;25.77;16.20;;;;;;;11.99;91.31;101176.18;1803367;78;25556;-85
2022/10/11 07:48:07;;;;;;;29.25;18.90;;;;;;;12.04;91.24;101181.84;1808199;77;27459;-84
2022/10/11 07:50:34;;;;;;;25.48;19.55;;;;;;;12.09;90.83;101186.14;1795649;78;25782;-84
2022/10/11 07:53:00;;;;;;;26.02;17.30;;;;;;;12.16;90.54;101189.78;1803043;77;25719;-85
2022/10/11 07:55:29;;;;;;;22.10;15.50;;;;;;;12.22;90.47;101190.39;1805550;77;25837;-85
2022/10/11 07:57:56;;;;;;;21.90;14.47;;;;;;;12.28;90.19;101195.02;1806061;77;25593;-84
2022/10/11 08:00:22;;;;;;;23.92;16.27;;;;;;;12.33;89.93;101196.66;1804844;78;27413;-85
2022/10/11 08:02:49;;;;;;;19.90;14.28;;;;;;;12.43;90.03;101203.94;1798024;78;25985;-85
2022/10/11 08:05:15;;;;;;;19.40;13.80;;;;;;;12.51;89.70;101205.72;1796944;78;25235;-85
2022/10/11 08:07:42;;;;;;;21.02;12.90;;;;;;;12.57;89.84;101212.53;1799915;78;26471;-85
2022/10/11 08:10:09;;;;;;;17.77;12.35;;;;;;;12.63;89.53;101215.81;1804396;78;25996;-83
2022/10/11 08:12:35;;;;;;;21.02;12.37;;;;;;;12.69;89.11;101215.07;1806330;78;27508;-84
2022/10/11 08:15:02;;;;;;;19.05;11.18;;;;;;;12.72;88.86;101223.28;1806727;78;25749;-85
2022/10/11 08:17:28;;;;;;;15.63;10.30;;;;;;;12.73;88.46;101216.87;1739174;79;25963;-86
2022/10/11 08:19:56;;;;;;;14.15;9.85;;;;;;;12.78;88.24;101220.69;1806496;77;25766;-84
2022/10/11 08:22:23;;;;;;;17.15;10.35;;;;;;;12.87;88.32;101223.58;1802877;78;25376;-85
2022/10/11 08:24:49;;;;;;;14.05;8.88;;;;;;;12.94;88.23;101220.98;1808323;78;27582;-85
2022/10/11 08:27:15;;;;;;;14.95;9.40;;;;;;;13.00;87.96;101223.75;1803716;77;25593;-84
2022/10/11 08:29:41;;;;;;;13.25;8.80;;;;;;;13.03;87.63;101219.86;1801668;77;25821;-85
2022/10/11 08:32:10;;;;;;;15.98;8.08;;;;;;;13.05;87.42;101224.58;1804831;78;25915;-85
2022/10/11 08:34:36;;;;;;;8.08;7.12;;;;;;;13.05;87.22;101220.04;1801116;78;25507;-84
2022/10/11 08:37:02;;;;;;;11.10;6.67;;;;;;;13.09;86.86;101227.21;1806812;77;27435;-87
2022/10/11 08:39:29;;;;;;;10.50;6.67;;;;;;;13.15;86.71;101225.14;1794048;78;25926;-83
2022/10/11 08:42:04;;;;;;;10.13;6.40;;;;;;;13.18;86.08;101238.70;1800762;78;25791;-83
2022/10/11 08:44:48;;;;;;;12.03;7.45;;;;;;;13.17;85.68;101235.20;1803180;78;26119;-85
2022/10/11 08:47:30;;;;;;;8.80;6.53;;;;;;;13.15;85.45;101239.40;1807894;77;26400;-83
2022/10/11 08:49:58;;;;;;;10.03;6.45;;;;;;;13.22;85.78;101242.17;1800490;77;27510;-85
2022/10/11 08:52:50;;;;;;;12.53;6.80;;;;;;;13.28;85.46;101240.07;1762872;79;26116;-85
2022/10/11 08:55:21;;;;;;;12.37;6.08;;;;;;;13.29;85.14;101240.41;1749125;81;25728;-84
2022/10/11 08:57:53;;;;;;;8.55;5.78;;;;;;;13.30;84.74;101243.41;1752663;81;25827;-84
2022/10/11 09:00:20;;;;;;;9.25;5.85;;;;;;;13.30;84.39;101246.09;1750976;81;25967;-81
2022/10/11 09:03:15;;;;;;;8.30;5.62;;;;;;;13.34;84.47;101250.61;1769515;80;27436;-82
2022/10/11 09:05:55;;;;;;;11.95;5.87;;;;;;;13.36;84.19;101249.41;1750815;81;25706;-84
2022/10/11 09:08:52;;;;;;;10.83;6.07;;;;;;;13.40;84.38;101258.77;1750720;81;25651;-82
2022/10/11 09:11:52;;;;;;;9.15;5.22;;;;;;;13.46;83.87;101255.31;1765635;80;25933;-84
2022/10/11 09:15:02;;;;;;;7.80;6.05;;;;;;;13.56;83.93;101251.79;1768044;79;25975;-84
2022/10/11 09:17:37;;;;;;;8.78;4.95;;;;;;;13.69;83.75;101264.56;1759013;79;27446;-85
2022/10/11 09:20:21;;;;;;;10.50;4.85;;;;;;;13.79;82.57;101262.41;1768291;79;25733;-85
2022/10/11 09:23:17;;;;;;;11.10;5.25;;;;;;;13.76;81.37;101265.47;1764779;79;25554;-85
2022/10/11 09:26:16;;;;;;;11.18;4.35;;;;;;;13.71;81.11;101273.27;1808811;77;25817;-81
2022/10/11 09:29:22;;;;;;;9.35;4.58;;;;;;;13.67;80.93;101267.95;1716943;81;25885;-82
2022/10/11 09:31:53;;;;;;;6.70;4.03;;;;;;;13.66;80.80;101269.84;1716497;81;27596;-82
2022/10/11 09:34:24;;;;;;;10.08;4.62;;;;;;;13.65;80.61;101275.39;1777427;78;26203;-80
2022/10/11 09:37:05;;;;;;;9.58;4.00;;;;;;;13.65;80.42;101273.54;1804016;78;25593;-81
2022/10/11 09:39:35;;;;;;;9.08;4.00;;;;;;;13.65;80.40;101281.62;1806936;77;25773;-80
2022/10/11 09:42:09;;;;;;;10.98;4.40;;;;;;;13.65;80.42;101272.20;1805523;78;33884;-81
2022/10/11 09:44:48;;;;;;;8.05;3.62;;;;;;;13.68;80.23;101280.41;1801984;77;27425;-80
2022/10/11 09:47:19;;;;;;;11.20;3.30;;;;;;;13.68;79.84;101281.25;1803343;78;26087;-80
2022/10/11 09:49:50;;;;;;;11.05;4.03;;;;;;;13.71;79.22;101282.20;1807459;77;25715;-80
2022/10/11 09:52:21;;;;;;;8.40;2.92;;;;;;;13.73;79.53;101285.53;1802972;78;25819;-80
2022/10/11 09:54:52;;;;;;;8.33;2.65;;;;;;;13.80;79.31;101295.87;1742704;80;25913;-81
2022/10/11 09:57:23;;;;;;;4.05;2.55;;;;;;;13.88;78.60;101295.74;1770887;79;27428;-81
2022/10/11 10:00:23;;;;;;;9.73;2.83;;;;;;;13.89;77.05;101290.69;1746278;81;25554;-81
2022/10/11 10:02:56;;;;;;;10.10;2.87;;;;;;;13.84;76.68;101298.50;1768367;79;25663;-81
2022/10/11 10:05:30;;;;;;;7.12;3.05;;;;;;;13.85;76.89;101298.83;1742024;80;25787;-80
2022/10/11 10:08:11;;;;;;;9.83;2.85;;;;;;;13.94;77.17;101291.47;1804765;78;25921;-80
2022/10/11 10:10:44;;;;;;;7.23;2.63;;;;;;;14.06;76.74;101299.34;1796238;78;27420;-82
2022/10/11 10:13:41;;;;;;;7.30;2.42;;;;;;;14.15;77.07;101298.20;1806219;77;26007;-81
2022/10/11 10:16:32;;;;;;;9.83;2.35;;;;;;;14.26;76.23;101296.34;1803337;78;25651;-80
2022/10/11 10:19:02;;;;;;;6.80;2.47;;;;;;;14.37;75.99;101295.83;1806841;78;25760;-81
2022/10/11 10:21:36;;;;;;;6.17;2.55;;;;;;;14.47;75.10;101303.59;1739521;81;33521;-82
2022/10/11 10:24:20;;;;;;;6.95;2.62;;;;;;;14.53;74.97;101298.25;1750600;81;27513;-81
2022/10/11 10:27:07;;;;;;;6.60;2.15;;;;;;;14.60;74.23;101293.75;1744341;81;25602;-81
2022/10/11 10:29:34;;;;;;;9.35;2.50;;;;;;;14.68;74.39;101295.45;1746838;81;25576;-81
2022/10/11 10:32:22;;;;;;;10.55;3.62;;;;;;;14.81;74.99;101299.59;1749422;81;26606;-80
2022/10/11 10:35:22;;;;;;;6.22;1.70;;;;;;;14.90;74.93;101311.91;1745717;81;25638;-80
2022/10/11 10:38:26;;;;;;;5.97;1.87;;;;;;;14.85;71.92;101314.35;1738656;81;27458;-82
2022/10/11 10:40:58;;;;;;;4.87;1.72;;;;;;;14.65;71.04;101324.15;1770670;80;25988;-80
2022/10/11 10:43:28;;;;;;;6.90;1.80;;;;;;;14.54;71.36;101320.12;1797047;78;25664;-80
2022/10/11 10:46:00;;;;;;;4.25;1.80;;;;;;;14.56;71.66;101325.34;1805780;78;26974;-80
2022/10/11 10:48:35;;;;;;;5.55;1.90;;;;;;;14.56;71.83;101326.16;1805286;78;25973;-81
2022/10/11 10:51:16;;;;;;;8.35;2.00;;;;;;;14.58;71.63;101322.75;1810019;78;28238;-81
2022/10/11 10:53:53;;;;;;;6.95;2.12;;;;;;;14.55;70.94;101328.55;1802231;78;25533;-81
2022/10/11 10:56:40;;;;;;;5.65;2.08;;;;;;;14.45;70.49;101325.36;1808992;78;25574;-81
2022/10/11 10:59:44;;;;;;;6.25;2.00;;;;;;;14.36;70.97;101325.67;1802488;78;25867;-80
2022/10/11 11:02:32;;;;;;;5.50;2.62;;;;;;;14.41;70.94;101328.63;1800514;78;25937;-81
2022/10/11 11:05:28;;;;;;;8.85;2.60;;;;;;;14.44;70.40;101332.27;1788620;79;27439;-81
2022/10/11 11:08:31;;;;;;;6.92;2.60;;;;;;;14.43;71.05;101340.05;1767940;80;25474;-81
2022/10/11 11:11:23;;;;;;;5.65;1.95;;;;;;;14.43;70.64;101328.77;1801701;78;25781;-83
2022/10/11 11:14:15;;;;;;;5.05;2.08;;;;;;;14.48;70.95;101329.50;1799271;78;25816;-81
2022/10/11 11:17:14;;;;;;;15.20;3.08;;;;;;;14.48;70.09;101342.48;1804652;78;25791;-81
2022/10/11 11:19:58;;;;;;;5.35;2.20;;;;;;;14.39;69.93;101343.62;1741545;80;27526;-82
2022/10/11 11:22:52;;;;;;;6.45;2.40;;;;;;;14.28;70.07;101350.03;1787515;78;25645;-81
2022/10/11 11:25:36;;;;;;;6.72;1.95;;;;;;;14.19;70.37;101349.83;1794671;78;25696;-78
2022/10/11 11:28:14;;;;;;;7.05;2.70;;;;;;;14.16;70.71;101351.05;1799058;78;26473;-85
2022/10/11 11:31:04;;;;;;;10.32;2.98;;;;;;;14.16;70.73;101348.85;1790782;78;26003;-82
2022/10/11 11:33:50;;;;;;;5.72;2.40;;;;;;;14.20;70.65;101344.24;1799355;78;27429;-84
2022/10/11 11:36:28;;;;;;;5.87;2.20;;;;;;;14.30;70.67;101342.12;1804963;77;26836;-87
2022/10/11 11:38:59;;;;;;;8.58;2.02;;;;;;;14.42;70.51;101344.60;1808633;77;25732;-86
2022/10/11 11:41:36;;;;;;;6.78;2.37;;;;;;;14.53;69.38;101341.89;1800164;78;25858;-86
2022/10/11 11:44:29;;;;;;;11.65;2.27;;;;;;;14.53;67.52;101344.08;1805791;78;26478;-87
2022/10/11 11:47:03;;;;;;;7.15;2.45;;;;;;;14.46;67.00;101347.73;1796199;78;27457;-83
2022/10/11 11:49:40;;;;;;;4.25;1.90;;;;;;;14.41;66.98;101355.05;1796249;78;25811;-82
2022/10/11 11:52:12;;;;;;;6.78;1.98;;;;;;;14.38;67.07;101349.22;1797636;79;25855;-83
2022/10/11 11:54:56;;;;;;;6.83;2.10;;;;;;;14.36;67.08;101356.66;1781201;79;25758;-86
2022/10/11 11:57:37;;;;;;;6.12;2.17;;;;;;;14.40;67.10;101354.74;1790638;78;26000;-84
2022/10/11 12:00:20;;;;;;;7.95;2.08;;;;;;;14.48;66.96;101353.77;1810040;77;27422;-81
2022/10/11 12:03:03;;;;;;;7.78;2.30;;;;;;;14.58;66.83;101355.64;1809193;77;25892;-81
2022/10/11 12:05:33;;;;;;;8.08;2.33;;;;;;;14.71;67.14;101346.82;1786908;78;25791;-81
2022/10/11 12:08:07;;;;;;;9.78;2.47;;;;;;;14.84;66.86;101358.52;1791714;78;26355;-81
2022/10/11 12:10:51;;;;;;;6.17;2.02;;;;;;;14.90;66.20;101357.77;1803984;78;26407;-85
2022/10/11 12:13:36;;;;;;;4.53;2.42;;;;;;;14.99;66.43;101357.91;1799945;78;27466;-87
2022/10/11 12:16:10;;;;;;;6.53;2.05;;;;;;;15.07;66.16;101354.24;1795310;78;26595;-85
2022/10/11 12:19:02;;;;;;;8.30;2.08;;;;;;;15.09;66.33;101357.07;1797858;78;25859;-81
2022/10/11 12:21:38;;;;;;;8.20;2.17;;;;;;;15.08;66.25;101359.94;1805430;77;25823;-84
2022/10/11 12:24:13;;;;;;;9.90;2.40;;;;;;;15.02;65.83;101358.03;1803028;78;26378;-83
2022/10/11 12:26:43;;;;;;;9.40;2.27;;;;;;;15.01;66.03;101360.44;1801494;78;27438;-81
2022/10/11 12:29:42;;;;;;;6.47;1.95;;;;;;;15.01;65.77;101368.53;1769738;78;26481;-87
2022/10/11 12:32:29;;;;;;;8.45;2.77;;;;;;;14.97;64.45;101368.61;1804845;77;25733;-82
2022/10/11 12:35:33;;;;;;;6.70;1.95;;;;;;;14.82;63.83;101370.56;1776019;78;25804;-82
2022/10/11 12:38:19;;;;;;;10.32;2.02;;;;;;;14.72;63.88;101370.05;1792863;78;26741;-84
2022/10/11 12:40:49;;;;;;;6.65;1.62;;;;;;;14.62;64.11;101367.70;1804387;78;27424;-84
2022/10/11 12:43:23;;;;;;;5.62;1.80;;;;;;;14.56;64.41;101371.17;1809092;77;25314;-84
2022/10/11 12:45:50;;;;;;;6.50;1.70;;;;;;;14.50;64.66;101368.72;1808821;78;25842;-82
2022/10/11 12:48:39;;;;;;;6.90;2.17;;;;;;;14.46;64.60;101370.14;1808179;78;26035;-85
2022/10/11 12:51:39;;;;;;;7.22;1.98;;;;;;;14.41;64.28;101373.92;1797753;77;25743;-84
2022/10/11 12:54:44;;;;;;;10.85;2.70;;;;;;;14.39;64.53;101369.77;1819390;77;27417;-87
2022/10/11 12:57:43;;;;;;;10.55;2.08;;;;;;;14.39;64.80;101373.28;1798624;78;25912;-84
2022/10/11 13:00:30;;;;;;;8.13;2.47;;;;;;;14.43;64.53;101380.48;1792696;76;25895;-84
2022/10/11 13:03:01;;;;;;;7.85;2.27;;;;;;;14.47;65.25;101374.52;1796828;77;25791;-87
2022/10/11 13:05:41;;;;;;;7.87;2.75;;;;;;;14.55;65.37;101377.58;1806720;77;25898;-88
2022/10/11 13:08:18;;;;;;;5.57;2.43;;;;;;;14.59;65.45;101376.16;1786793;78;27461;-87
2022/10/11 13:10:46;;;;;;;10.13;3.92;;;;;;;14.67;65.35;101380.06;1804094;79;25260;-88
2022/10/11 13:13:21;;;;;;;12.65;2.25;;;;;;;14.78;65.40;101377.38;1788890;78;25828;-82
2022/10/11 13:15:48;;;;;;;10.13;3.40;;;;;;;14.86;65.29;101375.38;1795152;78;25774;-83
2022/10/11 13:18:16;;;;;;;5.65;1.80;;;;;;;15.01;65.11;101380.67;1797574;78;25537;-83
2022/10/11 13:20:43;;;;;;;14.30;5.67;;;;;;;15.12;64.49;101376.09;1810280;78;27576;-82
2022/10/11 13:23:28;;;;;;;11.33;3.65;;;;;;;15.21;64.29;101375.72;1799020;78;25572;-82
2022/10/11 13:25:55;;;;;;;14.05;7.03;;;;;;;15.30;64.05;101381.79;1803594;78;25849;-83
2022/10/11 13:28:22;;;;;;;11.97;5.90;;;;;;;15.37;63.29;101385.38;1801272;78;25786;-83
2022/10/11 13:30:56;;;;;;;12.45;5.03;;;;;;;15.41;63.06;101379.89;1753327;80;25815;-82
2022/10/11 13:33:31;;;;;;;7.95;3.42;;;;;;;15.40;62.47;101380.91;1748406;80;27539;-82
2022/10/11 13:35:56;;;;;;;5.55;2.40;;;;;;;15.35;61.85;101380.15;1775541;79;26065;-81
2022/10/11 13:38:30;;;;;;;6.72;2.00;;;;;;;15.30;61.72;101379.94;1755085;80;25801;-82
2022/10/11 13:41:00;;;;;;;4.58;1.37;;;;;;;15.27;61.94;101387.06;1744303;81;25835;-82
2022/10/11 13:43:29;;;;;;;6.58;1.72;;;;;;;15.25;61.69;101385.59;1752105;80;25915;-83
2022/10/11 13:45:58;;;;;;;6.35;1.82;;;;;;;15.24;61.69;101386.13;1785668;79;27445;-82
2022/10/11 13:48:26;;;;;;;7.65;1.50;;;;;;;15.28;61.37;101389.25;1806055;78;25768;-82
2022/10/11 13:51:15;;;;;;;5.15;2.47;;;;;;;15.32;60.82;101386.47;1809801;77;25273;-82
2022/10/11 13:54:05;;;;;;;5.58;1.57;;;;;;;15.38;60.75;101388.38;1805131;78;26609;-85
2022/10/11 13:56:48;;;;;;;3.65;1.72;;;;;;;15.41;59.91;101396.93;1763195;80;26579;-82
2022/10/11 13:59:22;;;;;;;8.08;3.30;;;;;;;15.43;59.31;101398.10;1732655;81;27643;-82
2022/10/11 14:01:53;;;;;;;4.12;1.42;;;;;;;15.41;59.18;101404.19;1788401;78;25882;-82
2022/10/11 14:04:19;;;;;;;6.42;1.55;;;;;;;15.39;58.72;101396.30;1802635;78;25562;-83
2022/10/11 14:07:01;;;;;;;6.00;1.47;;;;;;;15.32;58.42;101399.46;1801672;78;26640;-82
2022/10/11 14:09:32;;;;;;;10.35;1.40;;;;;;;15.30;58.66;101401.53;1812288;77;25797;-82
2022/10/11 14:12:39;;;;;;;6.22;1.50;;;;;;;15.28;58.66;101404.10;1802938;77;27600;-82
2022/10/11 14:15:27;;;;;;;12.13;2.45;;;;;;;15.22;58.86;101402.20;1797035;77;25818;-83
2022/10/11 14:17:53;;;;;;;5.83;1.75;;;;;;;15.15;59.25;101404.01;1791913;77;25955;-81
2022/10/11 14:20:36;;;;;;;7.28;1.90;;;;;;;15.08;58.82;101401.26;1793870;79;25831;-82
2022/10/11 14:23:03;;;;;;;4.83;1.60;;;;;;;15.06;59.00;101398.44;1785087;77;25814;-82
2022/10/11 14:25:29;;;;;;;5.60;1.40;;;;;;;14.97;58.84;101400.98;1811868;77;27601;-81
2022/10/11 14:27:56;;;;;;;8.78;1.70;;;;;;;14.92;59.28;101406.95;1807318;78;26268;-81
2022/10/11 14:30:25;;;;;;;7.75;1.67;;;;;;;14.85;59.18;101404.72;1799233;79;25814;-84
2022/10/11 14:32:54;;;;;;;8.18;1.47;;;;;;;14.82;59.58;101406.98;1809102;79;25759;-83
2022/10/11 14:35:29;;;;;;;4.55;2.35;;;;;;;14.78;59.64;101407.86;1781858;79;25790;-83
2022/10/11 14:37:56;;;;;;;10.85;1.70;;;;;;;14.76;59.94;101409.92;1800081;78;27400;-82
2022/10/11 14:40:27;;;;;;;6.67;1.77;;;;;;;14.72;59.69;101409.99;1805547;79;25588;-83
2022/10/11 14:42:54;;;;;;;5.00;1.60;;;;;;;14.67;59.88;101410.56;1797049;78;25740;-82
2022/10/11 14:45:21;;;;;;;4.62;1.95;;;;;;;14.63;59.81;101410.64;1799357;78;25969;-83
2022/10/11 14:47:48;;;;;;;5.70;2.50;;;;;;;14.60;59.95;101419.64;1803720;78;25850;-83
2022/10/11 14:50:42;;;;;;;5.45;1.50;;;;;;;14.56;60.23;101428.61;1805032;78;28271;-83
2022/10/11 14:53:10;;;;;;;5.67;2.37;;;;;;;14.51;60.04;101428.37;1801371;78;25888;-81
2022/10/11 14:55:39;;;;;;;7.47;2.33;;;;;;;14.47;60.39;101425.73;1796687;78;26187;-83
2022/10/11 14:58:07;;;;;;;4.40;1.80;;;;;;;14.43;60.29;101433.89;1807568;77;25953;-84
2022/10/11 15:00:35;;;;;;;9.18;2.67;;;;;;;14.39;60.55;101433.92;1785264;78;25770;-88
2022/10/11 15:03:04;;;;;;;10.30;3.55;;;;;;;14.37;60.50;101425.73;1801598;78;27464;-82
2022/10/11 15:05:30;;;;;;;13.08;3.80;;;;;;;14.35;60.53;101433.98;1730944;81;26255;-85
2022/10/11 15:07:57;;;;;;;12.40;3.95;;;;;;;14.32;60.67;101433.04;1791819;78;25760;-86
2022/10/11 15:10:28;;;;;;;6.87;2.85;;;;;;;14.31;60.52;101438.09;1798216;78;26414;-85
2022/10/11 15:12:56;;;;;;;12.07;3.17;;;;;;;14.29;60.54;101440.14;1808975;78;25940;-87
2022/10/11 15:15:26;;;;;;;10.75;4.90;;;;;;;14.27;60.59;101437.28;1785950;78;27453;-86
2022/10/11 15:17:56;;;;;;;13.13;5.78;;;;;;;14.25;60.56;101446.07;1807157;78;25653;-84
2022/10/11 15:20:34;;;;;;;11.43;4.35;;;;;;;14.22;60.22;101442.43;1800163;78;25698;-84
2022/10/11 15:23:01;;;;;;;9.00;2.90;;;;;;;14.17;60.53;101440.30;1809441;78;25752;-88
2022/10/11 15:25:29;;;;;;;7.85;2.83;;;;;;;14.13;60.60;101441.70;1802030;78;25712;-87
2022/10/11 15:27:56;;;;;;;9.33;4.60;;;;;;;14.11;60.84;101442.41;1795525;78;27600;-89
2022/10/11 15:30:28;;;;;;;12.58;3.02;;;;;;;14.10;60.76;101450.16;1804465;78;25774;-89
2022/10/11 15:32:59;;;;;;;8.35;3.52;;;;;;;14.06;60.84;101452.06;1780638;78;25382;-91
2022/10/11 15:35:29;;;;;;;7.22;2.67;;;;;;;14.02;61.00;101448.92;1740702;81;26584;-93
2022/10/11 15:38:02;;;;;;;7.05;2.37;;;;;;;13.99;61.10;101457.36;1744626;81;25470;-93
2022/10/11 15:40:35;;;;;;;8.18;2.33;;;;;;;13.94;61.21;101455.23;1732567;80;26544;-92
2022/10/11 15:43:22;;;;;;;;;;;;;;;;;;;;;
2022/10/11 15:50:54;;;;;;;6.90;3.02;;;;;;;13.82;61.44;101470.20;1647435;81;25421;-82
2022/10/11 15:53:29;;;;;;;8.43;3.10;;;;;;;13.77;61.60;101472.61;1788898;79;27696;-88
2022/10/11 15:56:04;;;;;;;7.12;2.98;;;;;;;13.70;61.63;101467.67;1791089;78;25840;-85
2022/10/11 15:58:34;;;;;;;10.00;3.90;;;;;;;13.66;61.73;101471.76;1785383;79;25844;-84
2022/10/11 16:01:05;;;;;;;11.88;5.15;;;;;;;13.62;61.97;101465.04;1793188;79;25839;-83
2022/10/11 16:03:32;;;;;;;;;;;;;;;13.58;61.88;101475.05;1819344;77;26158;-82
2022/10/11 16:05:59;;;;;;;7.72;4.05;;;;;;;13.55;62.01;101483.48;1811644;77;26850;-83
2022/10/11 16:08:26;;;;;;;9.05;4.37;;;;;;;13.49;62.15;101481.03;1784784;79;25300;-87
2022/10/11 16:10:58;;;;;;;8.68;4.12;;;;;;;13.46;62.19;101483.23;1813351;77;26082;-90
2022/10/11 16:13:23;;;;;;;13.77;5.30;;;;;;;13.41;62.23;101489.70;1789281;78;25977;-88
2022/10/11 16:15:49;;;;;;;13.85;6.80;;;;;;;13.35;62.26;101495.78;1804791;78;25789;-89
2022/10/11 16:18:19;;;;;;;16.42;7.55;;;;;;;13.28;62.41;101494.33;1798772;78;27431;-84
2022/10/11 16:20:48;;;;;;;13.62;6.15;;;;;;;13.23;62.43;101498.09;1801182;78;25503;-85
2022/10/11 16:23:17;;;;;;;14.80;6.30;;;;;;;13.17;62.53;101502.02;1794493;78;25828;-83
2022/10/11 16:25:43;;;;;;;15.68;6.90;;;;;;;13.10;62.66;101501.91;1805212;78;25802;-83
2022/10/11 16:28:10;;;;;;;16.90;8.73;;;;;;;13.04;62.83;101499.92;1798596;78;25274;-86
2022/10/11 16:30:46;;;;;;;14.50;7.55;;;;;;;12.99;62.94;101509.87;1819962;78;27445;-86
2022/10/11 16:33:12;;;;;;;16.25;8.20;;;;;;;12.95;63.08;101512.59;1823502;78;25784;-84
2022/10/11 16:35:41;;;;;;;19.37;9.50;;;;;;;12.91;63.52;101504.56;1775617;80;25833;-84
2022/10/11 16:38:08;;;;;;;17.95;8.50;;;;;;;12.91;63.50;101506.41;1795692;79;25793;-84
2022/10/11 16:40:37;;;;;;;29.72;14.58;;;;;;;12.87;63.42;101513.16;1804246;78;25232;-88
2022/10/11 16:43:04;;;;;;;22.82;13.08;;;;;;;12.83;63.52;101514.01;1810064;78;27439;-87
2022/10/11 16:45:32;;;;;;;17.55;9.08;;;;;;;12.79;63.64;101515.38;1798694;78;25811;-83
2022/10/11 16:47:59;;;;;;;16.07;8.25;;;;;;;12.76;63.86;101516.27;1809068;78;25850;-87
2022/10/11 16:50:27;;;;;;;20.95;9.53;;;;;;;12.75;63.98;101509.20;1806686;78;26230;-88
2022/10/11 16:52:54;;;;;;;31.15;16.02;;;;;;;12.70;64.03;101513.76;1800744;78;25787;-84
2022/10/11 16:55:21;;;;;;;30.65;17.40;;;;;;;12.68;64.20;101519.02;1768667;79;28452;-86
2022/10/11 16:57:48;;;;;;;28.95;15.60;;;;;;;12.70;65.14;101508.38;1804788;78;26457;-87
2022/10/11 17:00:15;;;;;;;29.57;16.75;;;;;;;12.70;64.47;101515.64;1791813;78;25736;-84
2022/10/11 17:02:41;;;;;;;25.80;13.50;;;;;;;12.65;64.36;101522.89;1785809;79;25842;-87
2022/10/11 17:05:09;;;;;;;25.08;13.53;;;;;;;12.63;64.26;101515.51;1802281;78;25792;-86
2022/10/11 17:07:36;;;;;;;23.22;12.07;;;;;;;12.61;64.27;101519.38;1803829;78;27395;-86
2022/10/11 17:10:03;;;;;;;20.48;11.12;;;;;;;12.55;64.10;101522.28;1804092;78;25820;-87
2022/10/11 17:12:39;;;;;;;24.77;12.35;;;;;;;12.51;64.18;101524.16;1811734;78;25295;-85
2022/10/11 17:14:58;;;;;;;26.77;13.78;;;;;;;12.48;64.17;101524.49;1803585;78;25973;-90
2022/10/11 17:17:25;;;;;;;22.42;11.28;;;;;;;12.44;64.14;101529.89;1802042;77;25829;-89
2022/10/11 17:19:54;;;;;;;20.37;11.53;;;;;;;12.39;64.26;101530.42;1797939;78;27661;-87
2022/10/11 17:22:24;;;;;;;18.37;9.97;;;;;;;12.39;64.47;101535.80;1798975;78;26426;-86
2022/10/11 17:25:02;;;;;;;;;;;;;;;;;;;;;
2022/10/11 17:27:27;;;;;;;23.22;12.68;;;;;;;12.37;64.44;101538.66;1794124;78;25923;-87
2022/10/11 17:29:55;;;;;;;;;;;;;;;12.34;64.42;101543.53;1794815;78;25933;-87
2022/10/11 17:32:25;;;;;;;31.73;17.02;;;;;;;12.30;64.39;101537.68;1808535;77;26574;-87
2022/10/11 17:35:06;;;;;;;;;;;;;;;;;;;;;
2022/10/11 17:37:49;;;;;;;;;;;;;;;;;;;;;
2022/10/11 17:40:19;;;;;;;;;;;;;;;;;;;;;
2022/10/11 17:45:30;;;;;;;33.42;16.40;;;;;;;12.06;64.73;101537.77;1420957;99;26982;-85
2022/10/11 17:50:32;;;;;;;26.87;15.48;;;;;;;11.95;64.78;101538.67;1422371;94;26081;-78
2022/10/11 17:52:58;;;;;;;34.18;16.20;;;;;;;11.90;64.93;101549.08;1590818;86;26582;-84
2022/10/11 17:55:26;;;;;;;36.95;18.50;;;;;;;11.86;65.04;101543.23;1759547;78;25858;-83
2022/10/11 17:57:53;;;;;;;33.65;16.90;;;;;;;11.83;65.11;101543.56;1803872;78;27511;-86
2022/10/11 18:00:19;;;;;;;30.02;17.00;;;;;;;11.78;65.17;101547.28;1806287;78;26204;-82
2022/10/11 18:02:46;;;;;;;31.85;17.95;;;;;;;11.75;65.22;101546.77;1806945;78;25840;-82
2022/10/11 18:05:13;;;;;;;29.07;17.95;;;;;;;11.69;65.31;101544.28;1805925;78;25826;-82
2022/10/11 18:07:39;;;;;;;38.45;23.47;;;;;;;11.65;65.52;101546.94;1809315;78;26087;-84
2022/10/11 18:10:06;;;;;;;44.20;23.15;;;;;;;11.59;65.54;101552.96;1800914;78;27412;-85
2022/10/11 18:12:33;;;;;;;38.40;20.17;;;;;;;11.53;65.57;101548.28;1810697;78;25811;-85
2022/10/11 18:14:59;;;;;;;73.95;42.15;;;;;;;11.48;65.63;101543.42;1801556;78;25759;-85
2022/10/11 18:17:25;;;;;;;58.65;32.65;;;;;;;11.44;65.65;101547.45;1803888;78;25761;-85
2022/10/11 18:19:51;;;;;;;62.62;36.17;;;;;;;11.37;65.64;101545.13;1805493;78;25783;-84
2022/10/11 18:22:18;;;;;;;71.10;39.75;;;;;;;11.30;65.63;101556.19;1809920;78;27438;-85
2022/10/11 18:24:44;;;;;;;70.52;37.35;;;;;;;11.23;65.78;101557.02;1791460;78;26424;-84
2022/10/11 18:27:10;;;;;;;65.47;34.30;;;;;;;11.15;65.79;101559.20;1799726;78;26472;-84
2022/10/11 18:29:37;;;;;;;62.55;33.23;;;;;;;11.10;65.87;101557.52;1803452;77;25833;-83
2022/10/11 18:32:04;;;;;;;58.90;31.90;;;;;;;11.06;65.98;101562.03;1794063;78;25707;-85
2022/10/11 18:34:30;;;;;;;49.42;27.02;;;;;;;11.02;66.21;101558.02;1799868;78;27425;-85
2022/10/11 18:36:56;;;;;;;44.35;24.55;;;;;;;10.97;66.42;101563.05;1801722;78;25963;-84
2022/10/11 18:39:22;;;;;;;45.90;24.30;;;;;;;10.94;66.65;101565.56;1792614;78;25867;-84
2022/10/11 18:41:49;;;;;;;46.92;24.02;;;;;;;10.90;66.86;101562.03;1789292;78;26454;-84
2022/10/11 18:44:15;;;;;;;55.95;25.37;;;;;;;10.90;66.98;101564.71;1794994;78;25798;-83
2022/10/11 18:46:44;;;;;;;50.78;24.77;;;;;;;10.88;67.02;101564.89;1807015;78;28506;-84
2022/10/11 18:49:11;;;;;;;50.60;24.37;;;;;;;10.84;67.01;101567.04;1802332;78;25760;-84
2022/10/11 18:51:40;;;;;;;47.27;24.95;;;;;;;10.82;67.11;101570.88;1807546;78;25780;-84
2022/10/11 18:54:09;;;;;;;51.33;23.92;;;;;;;10.76;67.05;101564.84;1806002;78;25909;-84
2022/10/11 18:56:37;;;;;;;42.20;22.02;;;;;;;10.69;67.05;101574.04;1799650;78;26102;-84
2022/10/11 18:59:05;;;;;;;43.15;22.50;;;;;;;10.62;67.06;101569.52;1799961;78;27465;-85
2022/10/11 19:01:38;;;;;;;43.78;21.95;;;;;;;10.57;67.14;101570.00;1806809;78;25802;-83
2022/10/11 19:04:09;;;;;;;62.27;32.05;;;;;;;10.54;67.34;101572.17;1810805;78;26389;-86
2022/10/11 19:06:39;;;;;;;53.63;25.68;;;;;;;10.52;67.56;101572.84;1798327;78;25790;-86
2022/10/11 19:09:10;;;;;;;51.13;24.45;;;;;;;10.52;67.76;101577.67;1802104;78;26082;-84
2022/10/11 19:11:38;;;;;;;52.85;24.57;;;;;;;10.47;67.54;101582.70;1801722;78;27530;-84
2022/10/11 19:14:11;;;;;;;68.15;33.35;;;;;;;10.41;67.63;101578.00;1809307;78;25297;-85